sensor_id;sensor_type;location;lat;lon;timestamp;P1;durP1;ratioP1;P2;durP2;ratioP2
14768;SDS011;7476;49.404;11.152;2023-02-19T00:00:55;5.60;;;5.10;;
14768;SDS011;7476;49.404;11.152;2023-02-19T00:03:21;6.67;;;5.50;;
14768;SDS011;7476;49.404;11.152;2023-02-19T00:05:48;5.13;;;4.63;;
14768;SDS011;7476;49.404;11.152;2023-02-19T00:08:15;5.27;;;4.77;;
14768;SDS011;7476;49.404;11.152;2023-02-19T00:10:41;6.07;;;4.93;;
14768;SDS011;7476;49.404;11.152;2023-02-19T00:13:09;5.87;;;4.60;;
14768;SDS011;7476;49.404;11.152;2023-02-19T00:15:36;4.90;;;4.40;;
14768;SDS011;7476;49.404;11.152;2023-02-19T00:18:03;4.90;;;4.40;;
14768;SDS011;7476;49.404;11.152;2023-02-19T00:20:29;4.90;;;4.40;;
14768;SDS011;7476;49.404;11.152;2023-02-19T00:22:56;5.00;;;4.30;;
14768;SDS011;7476;49.404;11.152;2023-02-19T00:25:23;4.80;;;4.40;;
14768;SDS011;7476;49.404;11.152;2023-02-19T00:27:49;4.87;;;4.33;;
14768;SDS011;7476;49.404;11.152;2023-02-19T00:30:17;4.90;;;4.40;;
14768;SDS011;7476;49.404;11.152;2023-02-19T00:32:48;4.83;;;3.93;;
14768;SDS011;7476;49.404;11.152;2023-02-19T00:35:15;4.50;;;4.10;;
14768;SDS011;7476;49.404;11.152;2023-02-19T00:37:42;5.50;;;5.00;;
14768;SDS011;7476;49.404;11.152;2023-02-19T00:40:09;5.00;;;4.53;;
14768;SDS011;7476;49.404;11.152;2023-02-19T00:42:36;4.43;;;3.93;;
14768;SDS011;7476;49.404;11.152;2023-02-19T00:45:03;4.63;;;4.20;;
14768;SDS011;7476;49.404;11.152;2023-02-19T00:47:31;5.07;;;4.57;;
14768;SDS011;7476;49.404;11.152;2023-02-19T00:49:58;4.43;;;4.03;;
14768;SDS011;7476;49.404;11.152;2023-02-19T00:52:24;5.00;;;4.50;;
14768;SDS011;7476;49.404;11.152;2023-02-19T00:54:51;4.87;;;4.47;;
14768;SDS011;7476;49.404;11.152;2023-02-19T00:57:17;4.97;;;4.30;;
14768;SDS011;7476;49.404;11.152;2023-02-19T00:59:44;5.03;;;4.63;;
14768;SDS011;7476;49.404;11.152;2023-02-19T01:02:11;5.90;;;4.87;;
14768;SDS011;7476;49.404;11.152;2023-02-19T01:04:39;5.10;;;4.60;;
14768;SDS011;7476;49.404;11.152;2023-02-19T01:07:05;6.47;;;5.20;;
14768;SDS011;7476;49.404;11.152;2023-02-19T01:09:32;5.93;;;5.33;;
14768;SDS011;7476;49.404;11.152;2023-02-19T01:11:59;5.70;;;5.07;;
14768;SDS011;7476;49.404;11.152;2023-02-19T01:14:26;6.33;;;5.73;;
14768;SDS011;7476;49.404;11.152;2023-02-19T01:16:52;6.60;;;5.60;;
14768;SDS011;7476;49.404;11.152;2023-02-19T01:19:19;7.63;;;5.83;;
14768;SDS011;7476;49.404;11.152;2023-02-19T01:21:47;6.80;;;5.93;;
14768;SDS011;7476;49.404;11.152;2023-02-19T01:24:14;6.27;;;5.67;;
14768;SDS011;7476;49.404;11.152;2023-02-19T01:26:41;6.97;;;5.43;;
14768;SDS011;7476;49.404;11.152;2023-02-19T01:29:08;7.07;;;5.83;;
14768;SDS011;7476;49.404;11.152;2023-02-19T01:31:34;6.70;;;5.90;;
14768;SDS011;7476;49.404;11.152;2023-02-19T01:34:02;6.20;;;5.60;;
14768;SDS011;7476;49.404;11.152;2023-02-19T01:36:31;7.10;;;5.97;;
14768;SDS011;7476;49.404;11.152;2023-02-19T01:39:00;8.00;;;6.80;;
14768;SDS011;7476;49.404;11.152;2023-02-19T01:41:29;6.87;;;6.00;;
14768;SDS011;7476;49.404;11.152;2023-02-19T01:44:00;6.50;;;5.90;;
14768;SDS011;7476;49.404;11.152;2023-02-19T01:46:27;7.73;;;6.57;;
14768;SDS011;7476;49.404;11.152;2023-02-19T01:48:55;7.10;;;6.40;;
14768;SDS011;7476;49.404;11.152;2023-02-19T01:51:24;9.90;;;6.80;;
14768;SDS011;7476;49.404;11.152;2023-02-19T01:53:53;8.33;;;6.93;;
14768;SDS011;7476;49.404;11.152;2023-02-19T01:56:25;8.13;;;6.17;;
14768;SDS011;7476;49.404;11.152;2023-02-19T01:58:52;6.77;;;6.07;;
14768;SDS011;7476;49.404;11.152;2023-02-19T02:01:19;7.00;;;6.27;;
14768;SDS011;7476;49.404;11.152;2023-02-19T02:03:46;6.40;;;5.77;;
14768;SDS011;7476;49.404;11.152;2023-02-19T02:06:15;7.00;;;6.23;;
14768;SDS011;7476;49.404;11.152;2023-02-19T02:08:46;7.23;;;5.80;;
14768;SDS011;7476;49.404;11.152;2023-02-19T02:11:34;6.73;;;5.83;;
14768;SDS011;7476;49.404;11.152;2023-02-19T02:14:01;6.73;;;5.70;;
14768;SDS011;7476;49.404;11.152;2023-02-19T02:16:29;6.10;;;5.50;;
14768;SDS011;7476;49.404;11.152;2023-02-19T02:19:08;6.80;;;5.87;;
14768;SDS011;7476;49.404;11.152;2023-02-19T02:21:52;6.37;;;5.50;;
14768;SDS011;7476;49.404;11.152;2023-02-19T02:27:41;6.13;;;4.90;;
14768;SDS011;7476;49.404;11.152;2023-02-19T02:30:21;5.30;;;4.77;;
14768;SDS011;7476;49.404;11.152;2023-02-19T02:32:55;4.77;;;4.27;;
14768;SDS011;7476;49.404;11.152;2023-02-19T02:35:25;5.80;;;4.40;;
14768;SDS011;7476;49.404;11.152;2023-02-19T02:37:57;4.37;;;3.97;;
14768;SDS011;7476;49.404;11.152;2023-02-19T02:40:29;4.87;;;4.10;;
14768;SDS011;7476;49.404;11.152;2023-02-19T02:42:56;4.83;;;4.37;;
14768;SDS011;7476;49.404;11.152;2023-02-19T02:45:27;4.33;;;3.93;;
14768;SDS011;7476;49.404;11.152;2023-02-19T02:48:04;4.27;;;3.87;;
14768;SDS011;7476;49.404;11.152;2023-02-19T02:50:40;4.50;;;3.40;;
14768;SDS011;7476;49.404;11.152;2023-02-19T02:53:10;4.10;;;3.70;;
14768;SDS011;7476;49.404;11.152;2023-02-19T02:55:59;4.80;;;3.87;;
14768;SDS011;7476;49.404;11.152;2023-02-19T02:58:26;4.13;;;3.47;;
14768;SDS011;7476;49.404;11.152;2023-02-19T03:00:56;3.80;;;3.50;;
14768;SDS011;7476;49.404;11.152;2023-02-19T03:03:46;4.40;;;3.83;;
14768;SDS011;7476;49.404;11.152;2023-02-19T03:06:16;4.10;;;3.50;;
14768;SDS011;7476;49.404;11.152;2023-02-19T03:08:47;3.53;;;3.23;;
14768;SDS011;7476;49.404;11.152;2023-02-19T03:11:18;3.73;;;3.37;;
14768;SDS011;7476;49.404;11.152;2023-02-19T03:14:04;3.90;;;3.50;;
14768;SDS011;7476;49.404;11.152;2023-02-19T03:16:53;4.03;;;3.63;;
14768;SDS011;7476;49.404;11.152;2023-02-19T03:19:45;3.73;;;3.43;;
14768;SDS011;7476;49.404;11.152;2023-02-19T03:22:16;4.00;;;3.37;;
14768;SDS011;7476;49.404;11.152;2023-02-19T03:24:48;3.97;;;3.57;;
14768;SDS011;7476;49.404;11.152;2023-02-19T03:27:35;3.77;;;3.30;;
14768;SDS011;7476;49.404;11.152;2023-02-19T03:30:07;3.30;;;3.00;;
14768;SDS011;7476;49.404;11.152;2023-02-19T03:32:39;3.67;;;3.30;;
14768;SDS011;7476;49.404;11.152;2023-02-19T03:35:10;5.00;;;3.77;;
14768;SDS011;7476;49.404;11.152;2023-02-19T03:37:40;4.67;;;3.50;;
14768;SDS011;7476;49.404;11.152;2023-02-19T03:40:10;4.23;;;3.83;;
14768;SDS011;7476;49.404;11.152;2023-02-19T03:42:39;4.67;;;3.27;;
14768;SDS011;7476;49.404;11.152;2023-02-19T03:45:17;3.40;;;3.10;;
14768;SDS011;7476;49.404;11.152;2023-02-19T03:47:54;3.60;;;3.30;;
14768;SDS011;7476;49.404;11.152;2023-02-19T03:50:27;3.40;;;3.10;;
14768;SDS011;7476;49.404;11.152;2023-02-19T03:52:58;3.40;;;3.00;;
14768;SDS011;7476;49.404;11.152;2023-02-19T03:55:31;2.83;;;2.63;;
14768;SDS011;7476;49.404;11.152;2023-02-19T03:58:05;3.20;;;2.90;;
14768;SDS011;7476;49.404;11.152;2023-02-19T04:00:36;3.30;;;3.00;;
14768;SDS011;7476;49.404;11.152;2023-02-19T04:03:10;3.20;;;2.77;;
14768;SDS011;7476;49.404;11.152;2023-02-19T04:05:40;3.30;;;3.00;;
14768;SDS011;7476;49.404;11.152;2023-02-19T04:08:12;3.33;;;2.83;;
14768;SDS011;7476;49.404;11.152;2023-02-19T04:10:41;3.33;;;3.03;;
14768;SDS011;7476;49.404;11.152;2023-02-19T04:13:11;3.30;;;3.00;;
14768;SDS011;7476;49.404;11.152;2023-02-19T04:15:43;3.10;;;2.80;;
14768;SDS011;7476;49.404;11.152;2023-02-19T04:18:15;2.77;;;2.57;;
14768;SDS011;7476;49.404;11.152;2023-02-19T04:20:45;3.30;;;3.00;;
14768;SDS011;7476;49.404;11.152;2023-02-19T04:23:13;3.50;;;3.20;;
14768;SDS011;7476;49.404;11.152;2023-02-19T04:25:43;3.57;;;3.27;;
14768;SDS011;7476;49.404;11.152;2023-02-19T04:28:13;3.27;;;2.97;;
14768;SDS011;7476;49.404;11.152;2023-02-19T04:30:42;3.60;;;3.30;;
14768;SDS011;7476;49.404;11.152;2023-02-19T04:33:09;3.67;;;3.30;;
14768;SDS011;7476;49.404;11.152;2023-02-19T04:35:37;3.87;;;3.47;;
14768;SDS011;7476;49.404;11.152;2023-02-19T04:38:03;3.50;;;3.20;;
14768;SDS011;7476;49.404;11.152;2023-02-19T04:40:30;4.00;;;3.60;;
14768;SDS011;7476;49.404;11.152;2023-02-19T04:42:56;3.80;;;3.50;;
14768;SDS011;7476;49.404;11.152;2023-02-19T04:45:23;3.60;;;3.30;;
14768;SDS011;7476;49.404;11.152;2023-02-19T04:47:50;3.77;;;3.37;;
14768;SDS011;7476;49.404;11.152;2023-02-19T04:50:17;3.93;;;3.53;;
14768;SDS011;7476;49.404;11.152;2023-02-19T04:52:45;3.43;;;3.13;;
14768;SDS011;7476;49.404;11.152;2023-02-19T04:55:11;3.90;;;3.60;;
14768;SDS011;7476;49.404;11.152;2023-02-19T04:57:38;4.20;;;3.43;;
14768;SDS011;7476;49.404;11.152;2023-02-19T05:00:05;3.53;;;3.23;;
14768;SDS011;7476;49.404;11.152;2023-02-19T05:02:33;4.00;;;3.60;;
14768;SDS011;7476;49.404;11.152;2023-02-19T05:04:59;4.27;;;3.87;;
14768;SDS011;7476;49.404;11.152;2023-02-19T05:07:26;3.90;;;3.53;;
14768;SDS011;7476;49.404;11.152;2023-02-19T05:09:54;4.10;;;3.70;;
14768;SDS011;7476;49.404;11.152;2023-02-19T05:12:21;4.07;;;3.40;;
14768;SDS011;7476;49.404;11.152;2023-02-19T05:14:47;4.20;;;3.80;;
14768;SDS011;7476;49.404;11.152;2023-02-19T05:17:14;4.83;;;3.60;;
14768;SDS011;7476;49.404;11.152;2023-02-19T05:19:41;3.63;;;3.33;;
14768;SDS011;7476;49.404;11.152;2023-02-19T05:22:08;3.40;;;3.10;;
14768;SDS011;7476;49.404;11.152;2023-02-19T05:24:34;3.60;;;3.30;;
14768;SDS011;7476;49.404;11.152;2023-02-19T05:27:02;4.00;;;3.10;;
14768;SDS011;7476;49.404;11.152;2023-02-19T05:29:29;3.20;;;2.90;;
14768;SDS011;7476;49.404;11.152;2023-02-19T05:31:56;3.70;;;3.20;;
14768;SDS011;7476;49.404;11.152;2023-02-19T05:34:22;3.30;;;3.00;;
14768;SDS011;7476;49.404;11.152;2023-02-19T05:36:49;3.30;;;2.90;;
14768;SDS011;7476;49.404;11.152;2023-02-19T05:39:16;3.37;;;3.13;;
14768;SDS011;7476;49.404;11.152;2023-02-19T05:41:42;3.20;;;2.90;;
14768;SDS011;7476;49.404;11.152;2023-02-19T05:44:10;3.00;;;2.70;;
14768;SDS011;7476;49.404;11.152;2023-02-19T05:46:37;3.10;;;2.83;;
14768;SDS011;7476;49.404;11.152;2023-02-19T05:49:03;3.30;;;3.00;;
14768;SDS011;7476;49.404;11.152;2023-02-19T05:51:30;3.00;;;2.70;;
14768;SDS011;7476;49.404;11.152;2023-02-19T05:53:57;3.30;;;3.00;;
14768;SDS011;7476;49.404;11.152;2023-02-19T05:56:29;3.07;;;2.77;;
14768;SDS011;7476;49.404;11.152;2023-02-19T05:58:57;2.97;;;2.67;;
14768;SDS011;7476;49.404;11.152;2023-02-19T06:01:26;3.97;;;2.83;;
14768;SDS011;7476;49.404;11.152;2023-02-19T06:03:53;2.73;;;2.50;;
14768;SDS011;7476;49.404;11.152;2023-02-19T06:06:20;3.03;;;2.73;;
14768;SDS011;7476;49.404;11.152;2023-02-19T06:08:48;3.10;;;2.80;;
14768;SDS011;7476;49.404;11.152;2023-02-19T06:11:15;2.80;;;2.60;;
14768;SDS011;7476;49.404;11.152;2023-02-19T06:13:42;2.60;;;2.40;;
14768;SDS011;7476;49.404;11.152;2023-02-19T06:16:08;3.10;;;2.63;;
14768;SDS011;7476;49.404;11.152;2023-02-19T06:18:36;3.10;;;2.80;;
14768;SDS011;7476;49.404;11.152;2023-02-19T06:21:05;3.40;;;3.10;;
14768;SDS011;7476;49.404;11.152;2023-02-19T06:23:33;3.23;;;2.93;;
14768;SDS011;7476;49.404;11.152;2023-02-19T06:26:04;3.40;;;3.10;;
14768;SDS011;7476;49.404;11.152;2023-02-19T06:28:32;4.03;;;3.20;;
14768;SDS011;7476;49.404;11.152;2023-02-19T06:30:59;4.70;;;3.50;;
14768;SDS011;7476;49.404;11.152;2023-02-19T06:33:26;3.87;;;3.40;;
14768;SDS011;7476;49.404;11.152;2023-02-19T06:35:58;4.63;;;3.60;;
14768;SDS011;7476;49.404;11.152;2023-02-19T06:38:26;3.60;;;3.30;;
14768;SDS011;7476;49.404;11.152;2023-02-19T06:40:53;4.67;;;3.67;;
14768;SDS011;7476;49.404;11.152;2023-02-19T06:43:20;3.57;;;3.27;;
14768;SDS011;7476;49.404;11.152;2023-02-19T06:45:46;3.70;;;3.30;;
14768;SDS011;7476;49.404;11.152;2023-02-19T06:48:13;3.50;;;3.20;;
14768;SDS011;7476;49.404;11.152;2023-02-19T06:50:40;3.37;;;3.07;;
14768;SDS011;7476;49.404;11.152;2023-02-19T06:53:08;3.47;;;3.00;;
14768;SDS011;7476;49.404;11.152;2023-02-19T06:55:35;3.37;;;3.07;;
14768;SDS011;7476;49.404;11.152;2023-02-19T06:58:04;3.43;;;3.10;;
14768;SDS011;7476;49.404;11.152;2023-02-19T07:00:31;3.40;;;3.10;;
14768;SDS011;7476;49.404;11.152;2023-02-19T07:02:57;2.47;;;2.27;;
14768;SDS011;7476;49.404;11.152;2023-02-19T07:05:24;2.80;;;2.60;;
14768;SDS011;7476;49.404;11.152;2023-02-19T07:07:51;3.20;;;2.77;;
14768;SDS011;7476;49.404;11.152;2023-02-19T07:10:19;2.73;;;2.47;;
14768;SDS011;7476;49.404;11.152;2023-02-19T07:12:45;2.97;;;2.67;;
14768;SDS011;7476;49.404;11.152;2023-02-19T07:15:12;2.97;;;2.67;;
14768;SDS011;7476;49.404;11.152;2023-02-19T07:17:39;2.63;;;2.20;;
14768;SDS011;7476;49.404;11.152;2023-02-19T07:20:05;2.90;;;2.60;;
14768;SDS011;7476;49.404;11.152;2023-02-19T07:22:32;2.70;;;2.50;;
14768;SDS011;7476;49.404;11.152;2023-02-19T07:24:59;2.63;;;2.43;;
14768;SDS011;7476;49.404;11.152;2023-02-19T07:27:28;3.30;;;3.00;;
14768;SDS011;7476;49.404;11.152;2023-02-19T07:29:54;2.47;;;2.27;;
14768;SDS011;7476;49.404;11.152;2023-02-19T07:32:21;2.77;;;2.50;;
14768;SDS011;7476;49.404;11.152;2023-02-19T07:34:48;2.70;;;2.40;;
14768;SDS011;7476;49.404;11.152;2023-02-19T07:37:14;3.00;;;2.70;;
14768;SDS011;7476;49.404;11.152;2023-02-19T07:39:41;3.00;;;2.80;;
14768;SDS011;7476;49.404;11.152;2023-02-19T07:42:07;3.10;;;2.90;;
14768;SDS011;7476;49.404;11.152;2023-02-19T07:44:35;2.70;;;2.50;;
14768;SDS011;7476;49.404;11.152;2023-02-19T07:47:02;2.70;;;2.50;;
14768;SDS011;7476;49.404;11.152;2023-02-19T07:49:29;2.70;;;2.50;;
14768;SDS011;7476;49.404;11.152;2023-02-19T07:51:57;2.40;;;2.20;;
14768;SDS011;7476;49.404;11.152;2023-02-19T07:54:23;2.67;;;2.47;;
14768;SDS011;7476;49.404;11.152;2023-02-19T07:56:50;2.70;;;2.50;;
14768;SDS011;7476;49.404;11.152;2023-02-19T07:59:17;2.43;;;2.23;;
14768;SDS011;7476;49.404;11.152;2023-02-19T08:01:46;2.37;;;2.17;;
14768;SDS011;7476;49.404;11.152;2023-02-19T08:04:31;2.50;;;2.30;;
14768;SDS011;7476;49.404;11.152;2023-02-19T08:06:57;2.33;;;2.13;;
14768;SDS011;7476;49.404;11.152;2023-02-19T08:09:24;2.00;;;1.90;;
14768;SDS011;7476;49.404;11.152;2023-02-19T08:11:51;2.40;;;2.20;;
14768;SDS011;7476;49.404;11.152;2023-02-19T08:14:35;2.30;;;2.10;;
14768;SDS011;7476;49.404;11.152;2023-02-19T08:17:03;2.67;;;2.00;;
14768;SDS011;7476;49.404;11.152;2023-02-19T08:19:30;2.67;;;2.37;;
14768;SDS011;7476;49.404;11.152;2023-02-19T08:21:56;2.07;;;1.93;;
14768;SDS011;7476;49.404;11.152;2023-02-19T08:24:23;1.90;;;1.80;;
14768;SDS011;7476;49.404;11.152;2023-02-19T08:26:50;2.30;;;1.97;;
14768;SDS011;7476;49.404;11.152;2023-02-19T08:29:17;1.83;;;1.73;;
14768;SDS011;7476;49.404;11.152;2023-02-19T08:31:43;2.43;;;1.73;;
14768;SDS011;7476;49.404;11.152;2023-02-19T08:34:11;1.90;;;1.80;;
14768;SDS011;7476;49.404;11.152;2023-02-19T08:36:38;1.57;;;1.47;;
14768;SDS011;7476;49.404;11.152;2023-02-19T08:39:04;1.90;;;1.60;;
14768;SDS011;7476;49.404;11.152;2023-02-19T08:41:31;2.00;;;1.70;;
14768;SDS011;7476;49.404;11.152;2023-02-19T08:43:58;1.80;;;1.70;;
14768;SDS011;7476;49.404;11.152;2023-02-19T08:46:25;1.90;;;1.80;;
14768;SDS011;7476;49.404;11.152;2023-02-19T08:48:51;2.00;;;1.53;;
14768;SDS011;7476;49.404;11.152;2023-02-19T08:51:19;1.83;;;1.53;;
14768;SDS011;7476;49.404;11.152;2023-02-19T08:53:46;1.57;;;1.47;;
14768;SDS011;7476;49.404;11.152;2023-02-19T08:56:13;1.57;;;1.47;;
14768;SDS011;7476;49.404;11.152;2023-02-19T08:58:41;1.60;;;1.50;;
14768;SDS011;7476;49.404;11.152;2023-02-19T09:01:08;1.80;;;1.40;;
14768;SDS011;7476;49.404;11.152;2023-02-19T09:03:36;2.60;;;1.50;;
14768;SDS011;7476;49.404;11.152;2023-02-19T09:06:03;1.33;;;1.23;;
14768;SDS011;7476;49.404;11.152;2023-02-19T09:08:31;1.93;;;1.50;;
14768;SDS011;7476;49.404;11.152;2023-02-19T09:10:58;1.73;;;1.50;;
14768;SDS011;7476;49.404;11.152;2023-02-19T09:13:25;1.50;;;1.40;;
14768;SDS011;7476;49.404;11.152;2023-02-19T09:15:52;1.27;;;1.17;;
14768;SDS011;7476;49.404;11.152;2023-02-19T09:18:20;1.87;;;1.60;;
14768;SDS011;7476;49.404;11.152;2023-02-19T09:20:47;1.80;;;1.40;;
14768;SDS011;7476;49.404;11.152;2023-02-19T09:23:14;1.50;;;1.40;;
14768;SDS011;7476;49.404;11.152;2023-02-19T09:25:42;2.37;;;1.40;;
14768;SDS011;7476;49.404;11.152;2023-02-19T09:28:08;1.57;;;1.47;;
14768;SDS011;7476;49.404;11.152;2023-02-19T09:30:35;1.87;;;1.50;;
14768;SDS011;7476;49.404;11.152;2023-02-19T09:33:03;2.17;;;1.70;;
14768;SDS011;7476;49.404;11.152;2023-02-19T09:35:29;1.80;;;1.60;;
14768;SDS011;7476;49.404;11.152;2023-02-19T09:37:57;2.13;;;1.70;;
14768;SDS011;7476;49.404;11.152;2023-02-19T09:40:25;2.97;;;1.77;;
14768;SDS011;7476;49.404;11.152;2023-02-19T09:42:53;2.90;;;1.50;;
14768;SDS011;7476;49.404;11.152;2023-02-19T09:45:21;2.00;;;1.80;;
14768;SDS011;7476;49.404;11.152;2023-02-19T09:47:52;3.03;;;1.90;;
14768;SDS011;7476;49.404;11.152;2023-02-19T09:50:20;2.03;;;1.83;;
14768;SDS011;7476;49.404;11.152;2023-02-19T09:52:52;1.70;;;1.60;;
14768;SDS011;7476;49.404;11.152;2023-02-19T09:55:24;2.50;;;1.83;;
14768;SDS011;7476;49.404;11.152;2023-02-19T09:57:58;1.97;;;1.80;;
14768;SDS011;7476;49.404;11.152;2023-02-19T10:00:28;3.73;;;2.00;;
14768;SDS011;7476;49.404;11.152;2023-02-19T10:03:01;2.40;;;1.80;;
14768;SDS011;7476;49.404;11.152;2023-02-19T10:05:31;2.13;;;1.90;;
14768;SDS011;7476;49.404;11.152;2023-02-19T10:07:58;2.53;;;1.90;;
14768;SDS011;7476;49.404;11.152;2023-02-19T10:10:27;2.40;;;2.10;;
14768;SDS011;7476;49.404;11.152;2023-02-19T10:12:55;3.00;;;1.93;;
14768;SDS011;7476;49.404;11.152;2023-02-19T10:15:39;2.27;;;2.07;;
14768;SDS011;7476;49.404;11.152;2023-02-19T10:18:10;3.03;;;2.20;;
14768;SDS011;7476;49.404;11.152;2023-02-19T10:20:37;3.77;;;2.27;;
14768;SDS011;7476;49.404;11.152;2023-02-19T10:23:05;3.70;;;2.10;;
14768;SDS011;7476;49.404;11.152;2023-02-19T10:25:33;2.53;;;2.00;;
14768;SDS011;7476;49.404;11.152;2023-02-19T10:28:02;2.97;;;2.23;;
14768;SDS011;7476;49.404;11.152;2023-02-19T10:30:30;3.30;;;2.00;;
14768;SDS011;7476;49.404;11.152;2023-02-19T10:33:00;3.60;;;2.40;;
14768;SDS011;7476;49.404;11.152;2023-02-19T10:35:28;2.53;;;2.00;;
14768;SDS011;7476;49.404;11.152;2023-02-19T10:37:56;5.17;;;2.17;;
14768;SDS011;7476;49.404;11.152;2023-02-19T10:40:24;2.30;;;2.03;;
14768;SDS011;7476;49.404;11.152;2023-02-19T10:42:52;2.30;;;2.10;;
14768;SDS011;7476;49.404;11.152;2023-02-19T10:45:24;2.13;;;1.80;;
14768;SDS011;7476;49.404;11.152;2023-02-19T10:47:59;3.80;;;2.13;;
14768;SDS011;7476;49.404;11.152;2023-02-19T10:50:26;3.57;;;2.10;;
14768;SDS011;7476;49.404;11.152;2023-02-19T10:52:57;2.30;;;2.10;;
14768;SDS011;7476;49.404;11.152;2023-02-19T10:55:26;2.13;;;1.70;;
14768;SDS011;7476;49.404;11.152;2023-02-19T10:57:54;3.23;;;2.20;;
14768;SDS011;7476;49.404;11.152;2023-02-19T11:00:22;4.53;;;2.00;;
14768;SDS011;7476;49.404;11.152;2023-02-19T11:03:13;2.80;;;2.20;;
14768;SDS011;7476;49.404;11.152;2023-02-19T11:05:49;3.33;;;2.20;;
14768;SDS011;7476;49.404;11.152;2023-02-19T11:08:20;2.33;;;2.13;;
14768;SDS011;7476;49.404;11.152;2023-02-19T11:10:48;3.13;;;2.80;;
14768;SDS011;7476;49.404;11.152;2023-02-19T11:13:15;2.20;;;2.00;;
14768;SDS011;7476;49.404;11.152;2023-02-19T11:15:51;3.93;;;2.27;;
14768;SDS011;7476;49.404;11.152;2023-02-19T11:18:21;3.37;;;2.50;;
14768;SDS011;7476;49.404;11.152;2023-02-19T11:20:49;3.00;;;2.00;;
14768;SDS011;7476;49.404;11.152;2023-02-19T11:23:21;3.37;;;2.10;;
14768;SDS011;7476;49.404;11.152;2023-02-19T11:25:50;4.43;;;2.33;;
14768;SDS011;7476;49.404;11.152;2023-02-19T11:28:21;4.00;;;2.60;;
14768;SDS011;7476;49.404;11.152;2023-02-19T11:30:54;3.93;;;2.50;;
14768;SDS011;7476;49.404;11.152;2023-02-19T11:33:41;3.40;;;2.80;;
14768;SDS011;7476;49.404;11.152;2023-02-19T11:36:23;4.03;;;2.60;;
14768;SDS011;7476;49.404;11.152;2023-02-19T11:38:58;6.80;;;3.10;;
14768;SDS011;7476;49.404;11.152;2023-02-19T11:41:42;5.67;;;2.67;;
14768;SDS011;7476;49.404;11.152;2023-02-19T11:44:19;3.37;;;3.00;;
14768;SDS011;7476;49.404;11.152;2023-02-19T11:46:58;4.63;;;3.10;;
14768;SDS011;7476;49.404;11.152;2023-02-19T11:49:38;4.57;;;2.93;;
14768;SDS011;7476;49.404;11.152;2023-02-19T11:52:20;4.10;;;3.30;;
14768;SDS011;7476;49.404;11.152;2023-02-19T11:54:54;5.43;;;3.87;;
14768;SDS011;7476;49.404;11.152;2023-02-19T12:00:21;4.53;;;3.63;;
14768;SDS011;7476;49.404;11.152;2023-02-19T12:02:56;5.90;;;3.50;;
14768;SDS011;7476;49.404;11.152;2023-02-19T12:05:42;5.40;;;3.07;;
14768;SDS011;7476;49.404;11.152;2023-02-19T12:08:33;4.37;;;3.07;;
14768;SDS011;7476;49.404;11.152;2023-02-19T12:11:22;3.77;;;2.77;;
14768;SDS011;7476;49.404;11.152;2023-02-19T12:14:07;3.30;;;2.93;;
14768;SDS011;7476;49.404;11.152;2023-02-19T12:16:49;4.60;;;3.07;;
14768;SDS011;7476;49.404;11.152;2023-02-19T12:19:33;3.23;;;2.93;;
14768;SDS011;7476;49.404;11.152;2023-02-19T12:22:13;3.77;;;2.60;;
14768;SDS011;7476;49.404;11.152;2023-02-19T12:24:54;3.53;;;3.00;;
14768;SDS011;7476;49.404;11.152;2023-02-19T12:28:01;4.17;;;2.80;;
14768;SDS011;7476;49.404;11.152;2023-02-19T12:30:45;4.97;;;2.90;;
14768;SDS011;7476;49.404;11.152;2023-02-19T12:33:42;3.27;;;2.60;;
14768;SDS011;7476;49.404;11.152;2023-02-19T12:36:46;4.20;;;2.80;;
14768;SDS011;7476;49.404;11.152;2023-02-19T12:39:23;6.20;;;3.17;;
14768;SDS011;7476;49.404;11.152;2023-02-19T12:41:58;4.80;;;3.27;;
14768;SDS011;7476;49.404;11.152;2023-02-19T12:44:37;4.10;;;2.80;;
14768;SDS011;7476;49.404;11.152;2023-02-19T12:47:09;4.63;;;2.70;;
14768;SDS011;7476;49.404;11.152;2023-02-19T12:49:43;5.30;;;2.83;;
14768;SDS011;7476;49.404;11.152;2023-02-19T12:52:17;3.27;;;2.93;;
14768;SDS011;7476;49.404;11.152;2023-02-19T12:54:47;3.40;;;2.87;;
14768;SDS011;7476;49.404;11.152;2023-02-19T12:57:18;3.03;;;2.73;;
14768;SDS011;7476;49.404;11.152;2023-02-19T12:59:48;3.30;;;2.70;;
14768;SDS011;7476;49.404;11.152;2023-02-19T13:02:19;4.80;;;2.50;;
14768;SDS011;7476;49.404;11.152;2023-02-19T13:04:54;4.33;;;3.07;;
14768;SDS011;7476;49.404;11.152;2023-02-19T13:07:29;3.23;;;2.60;;
14768;SDS011;7476;49.404;11.152;2023-02-19T13:10:03;3.33;;;2.60;;
14768;SDS011;7476;49.404;11.152;2023-02-19T13:12:50;4.80;;;2.53;;
14768;SDS011;7476;49.404;11.152;2023-02-19T13:15:28;6.70;;;2.47;;
14768;SDS011;7476;49.404;11.152;2023-02-19T13:17:59;3.67;;;2.07;;
14768;SDS011;7476;49.404;11.152;2023-02-19T13:20:28;2.37;;;1.93;;
14768;SDS011;7476;49.404;11.152;2023-02-19T13:23:00;4.10;;;2.40;;
14768;SDS011;7476;49.404;11.152;2023-02-19T13:25:54;3.30;;;2.10;;
14768;SDS011;7476;49.404;11.152;2023-02-19T13:28:48;5.90;;;2.40;;
14768;SDS011;7476;49.404;11.152;2023-02-19T13:31:31;4.60;;;2.23;;
14768;SDS011;7476;49.404;11.152;2023-02-19T13:34:11;3.20;;;2.27;;
14768;SDS011;7476;49.404;11.152;2023-02-19T13:36:45;2.30;;;2.10;;
14768;SDS011;7476;49.404;11.152;2023-02-19T13:39:15;3.10;;;2.40;;
14768;SDS011;7476;49.404;11.152;2023-02-19T13:41:48;2.70;;;2.20;;
14768;SDS011;7476;49.404;11.152;2023-02-19T13:44:17;5.10;;;2.73;;
14768;SDS011;7476;49.404;11.152;2023-02-19T13:46:45;4.07;;;2.57;;
14768;SDS011;7476;49.404;11.152;2023-02-19T13:49:23;3.03;;;2.73;;
14768;SDS011;7476;49.404;11.152;2023-02-19T14:01:00;2.63;;;2.20;;
14768;SDS011;7476;49.404;11.152;2023-02-19T14:03:29;2.63;;;2.23;;
14768;SDS011;7476;49.404;11.152;2023-02-19T14:06:10;3.00;;;2.33;;
14768;SDS011;7476;49.404;11.152;2023-02-19T14:08:47;3.67;;;2.20;;
14768;SDS011;7476;49.404;11.152;2023-02-19T14:11:16;2.47;;;2.27;;
14768;SDS011;7476;49.404;11.152;2023-02-19T14:13:57;2.53;;;1.93;;
14768;SDS011;7476;49.404;11.152;2023-02-19T14:16:53;2.50;;;2.07;;
14768;SDS011;7476;49.404;11.152;2023-02-19T14:19:45;4.03;;;2.07;;
14768;SDS011;7476;49.404;11.152;2023-02-19T14:25:17;3.00;;;2.20;;
14768;SDS011;7476;49.404;11.152;2023-02-19T14:27:51;2.53;;;2.30;;
14768;SDS011;7476;49.404;11.152;2023-02-19T14:30:19;3.27;;;2.30;;
14768;SDS011;7476;49.404;11.152;2023-02-19T14:32:50;3.03;;;2.30;;
14768;SDS011;7476;49.404;11.152;2023-02-19T14:35:17;3.67;;;2.20;;
14768;SDS011;7476;49.404;11.152;2023-02-19T14:37:44;3.97;;;2.67;;
14768;SDS011;7476;49.404;11.152;2023-02-19T14:40:12;3.73;;;2.50;;
14768;SDS011;7476;49.404;11.152;2023-02-19T14:42:45;2.70;;;2.40;;
14768;SDS011;7476;49.404;11.152;2023-02-19T14:45:13;2.97;;;2.67;;
14768;SDS011;7476;49.404;11.152;2023-02-19T14:47:41;3.23;;;2.27;;
14768;SDS011;7476;49.404;11.152;2023-02-19T14:50:13;3.40;;;2.40;;
14768;SDS011;7476;49.404;11.152;2023-02-19T14:52:46;3.23;;;2.37;;
14768;SDS011;7476;49.404;11.152;2023-02-19T14:55:16;4.13;;;2.43;;
14768;SDS011;7476;49.404;11.152;2023-02-19T14:57:50;5.10;;;2.60;;
14768;SDS011;7476;49.404;11.152;2023-02-19T15:00:21;3.43;;;2.33;;
14768;SDS011;7476;49.404;11.152;2023-02-19T15:02:49;2.60;;;2.20;;
14768;SDS011;7476;49.404;11.152;2023-02-19T15:05:20;2.57;;;2.30;;
14768;SDS011;7476;49.404;11.152;2023-02-19T15:07:49;3.07;;;2.23;;
14768;SDS011;7476;49.404;11.152;2023-02-19T15:10:18;3.57;;;2.33;;
14768;SDS011;7476;49.404;11.152;2023-02-19T15:12:46;3.70;;;2.40;;
14768;SDS011;7476;49.404;11.152;2023-02-19T15:15:16;2.60;;;2.40;;
14768;SDS011;7476;49.404;11.152;2023-02-19T15:17:46;3.90;;;2.20;;
14768;SDS011;7476;49.404;11.152;2023-02-19T15:20:15;3.70;;;2.30;;
14768;SDS011;7476;49.404;11.152;2023-02-19T15:22:46;2.77;;;2.37;;
14768;SDS011;7476;49.404;11.152;2023-02-19T15:25:14;2.33;;;2.13;;
14768;SDS011;7476;49.404;11.152;2023-02-19T15:27:43;2.23;;;2.03;;